sensor_id;sensor_type;location;lat;lon;timestamp;P1;durP1;ratioP1;P2;durP2;ratioP2
10281;SDS011;5186;59.472;18.048;2022-09-01T00:02:24;0.93;;;0.70;;
10281;SDS011;5186;59.472;18.048;2022-09-01T00:04:52;1.17;;;0.63;;
10281;SDS011;5186;59.472;18.048;2022-09-01T00:07:22;0.40;;;0.40;;
10281;SDS011;5186;59.472;18.048;2022-09-01T00:09:49;2.10;;;0.70;;
10281;SDS011;5186;59.472;18.048;2022-09-01T00:12:15;0.60;;;0.60;;
10281;SDS011;5186;59.472;18.048;2022-09-01T00:14:41;1.00;;;0.80;;
10281;SDS011;5186;59.472;18.048;2022-09-01T00:17:08;0.53;;;0.53;;
10281;SDS011;5186;59.472;18.048;2022-09-01T00:19:36;2.10;;;0.60;;
10281;SDS011;5186;59.472;18.048;2022-09-01T00:22:04;0.60;;;0.57;;
10281;SDS011;5186;59.472;18.048;2022-09-01T00:24:30;1.30;;;0.80;;
10281;SDS011;5186;59.472;18.048;2022-09-01T00:26:56;0.80;;;0.80;;
10281;SDS011;5186;59.472;18.048;2022-09-01T00:29:22;0.73;;;0.70;;
10281;SDS011;5186;59.472;18.048;2022-09-01T00:31:48;3.07;;;0.77;;
10281;SDS011;5186;59.472;18.048;2022-09-01T00:34:15;0.60;;;0.60;;
10281;SDS011;5186;59.472;18.048;2022-09-01T00:36:41;0.70;;;0.70;;
10281;SDS011;5186;59.472;18.048;2022-09-01T00:39:08;0.93;;;0.80;;
10281;SDS011;5186;59.472;18.048;2022-09-01T00:41:34;3.40;;;0.73;;
10281;SDS011;5186;59.472;18.048;2022-09-01T00:44:07;1.03;;;0.83;;
10281;SDS011;5186;59.472;18.048;2022-09-01T00:46:38;1.10;;;0.60;;
10281;SDS011;5186;59.472;18.048;2022-09-01T00:49:16;1.50;;;1.00;;
10281;SDS011;5186;59.472;18.048;2022-09-01T00:52:00;2.63;;;0.90;;
10281;SDS011;5186;59.472;18.048;2022-09-01T00:54:34;2.10;;;0.80;;
10281;SDS011;5186;59.472;18.048;2022-09-01T00:57:03;1.53;;;0.73;;
10281;SDS011;5186;59.472;18.048;2022-09-01T00:59:29;1.47;;;1.10;;
10281;SDS011;5186;59.472;18.048;2022-09-01T01:01:56;1.27;;;0.80;;
10281;SDS011;5186;59.472;18.048;2022-09-01T01:04:22;1.40;;;0.97;;
10281;SDS011;5186;59.472;18.048;2022-09-01T01:06:50;2.30;;;0.93;;
10281;SDS011;5186;59.472;18.048;2022-09-01T01:09:26;1.30;;;0.83;;
10281;SDS011;5186;59.472;18.048;2022-09-01T01:11:54;2.97;;;1.03;;
10281;SDS011;5186;59.472;18.048;2022-09-01T01:14:24;1.07;;;0.80;;
10281;SDS011;5186;59.472;18.048;2022-09-01T01:16:51;3.97;;;0.80;;
10281;SDS011;5186;59.472;18.048;2022-09-01T01:19:24;1.67;;;0.90;;
10281;SDS011;5186;59.472;18.048;2022-09-01T01:22:28;1.33;;;0.80;;
10281;SDS011;5186;59.472;18.048;2022-09-01T01:25:25;1.20;;;1.00;;
10281;SDS011;5186;59.472;18.048;2022-09-01T01:28:14;1.50;;;0.90;;
10281;SDS011;5186;59.472;18.048;2022-09-01T01:30:48;0.90;;;0.80;;
10281;SDS011;5186;59.472;18.048;2022-09-01T01:33:18;1.07;;;0.80;;
10281;SDS011;5186;59.472;18.048;2022-09-01T01:35:44;1.53;;;0.80;;
10281;SDS011;5186;59.472;18.048;2022-09-01T01:38:10;2.80;;;0.80;;
10281;SDS011;5186;59.472;18.048;2022-09-01T01:40:36;1.60;;;1.10;;
10281;SDS011;5186;59.472;18.048;2022-09-01T01:43:03;1.33;;;1.00;;
10281;SDS011;5186;59.472;18.048;2022-09-01T01:45:29;1.10;;;0.90;;
10281;SDS011;5186;59.472;18.048;2022-09-01T01:47:55;2.90;;;0.97;;
10281;SDS011;5186;59.472;18.048;2022-09-01T01:50:27;1.10;;;0.70;;
10281;SDS011;5186;59.472;18.048;2022-09-01T01:52:57;0.70;;;0.70;;
10281;SDS011;5186;59.472;18.048;2022-09-01T01:55:25;2.93;;;1.00;;
10281;SDS011;5186;59.472;18.048;2022-09-01T01:57:55;1.90;;;1.00;;
10281;SDS011;5186;59.472;18.048;2022-09-01T02:00:23;1.33;;;0.90;;
10281;SDS011;5186;59.472;18.048;2022-09-01T02:02:54;1.53;;;1.10;;
10281;SDS011;5186;59.472;18.048;2022-09-01T02:05:25;0.80;;;0.77;;
10281;SDS011;5186;59.472;18.048;2022-09-01T02:07:54;1.30;;;0.90;;
10281;SDS011;5186;59.472;18.048;2022-09-01T02:10:23;1.27;;;0.83;;
10281;SDS011;5186;59.472;18.048;2022-09-01T02:12:51;1.50;;;0.80;;
10281;SDS011;5186;59.472;18.048;2022-09-01T02:15:17;1.07;;;0.90;;
10281;SDS011;5186;59.472;18.048;2022-09-01T02:17:44;1.60;;;1.03;;
10281;SDS011;5186;59.472;18.048;2022-09-01T02:20:10;1.03;;;0.70;;
10281;SDS011;5186;59.472;18.048;2022-09-01T02:22:36;1.20;;;0.70;;
10281;SDS011;5186;59.472;18.048;2022-09-01T02:25:03;2.07;;;0.90;;
10281;SDS011;5186;59.472;18.048;2022-09-01T02:27:29;0.60;;;0.60;;
10281;SDS011;5186;59.472;18.048;2022-09-01T02:29:57;1.53;;;0.90;;
10281;SDS011;5186;59.472;18.048;2022-09-01T02:32:24;2.33;;;0.80;;
10281;SDS011;5186;59.472;18.048;2022-09-01T02:34:49;1.37;;;0.83;;
10281;SDS011;5186;59.472;18.048;2022-09-01T02:37:21;1.70;;;1.00;;
10281;SDS011;5186;59.472;18.048;2022-09-01T02:39:49;0.77;;;0.70;;
10281;SDS011;5186;59.472;18.048;2022-09-01T02:42:16;1.23;;;0.97;;
10281;SDS011;5186;59.472;18.048;2022-09-01T02:44:41;1.53;;;0.60;;
10281;SDS011;5186;59.472;18.048;2022-09-01T02:47:08;1.07;;;0.77;;
10281;SDS011;5186;59.472;18.048;2022-09-01T02:49:33;0.90;;;0.63;;
10281;SDS011;5186;59.472;18.048;2022-09-01T02:52:00;0.70;;;0.67;;
10281;SDS011;5186;59.472;18.048;2022-09-01T02:54:27;0.70;;;0.70;;
10281;SDS011;5186;59.472;18.048;2022-09-01T02:56:54;2.40;;;0.90;;
10281;SDS011;5186;59.472;18.048;2022-09-01T02:59:20;1.07;;;0.80;;
10281;SDS011;5186;59.472;18.048;2022-09-01T03:01:48;2.33;;;0.70;;
10281;SDS011;5186;59.472;18.048;2022-09-01T03:04:15;0.70;;;0.70;;
10281;SDS011;5186;59.472;18.048;2022-09-01T03:06:42;1.00;;;0.70;;
10281;SDS011;5186;59.472;18.048;2022-09-01T03:09:10;2.00;;;0.70;;
10281;SDS011;5186;59.472;18.048;2022-09-01T03:11:40;1.80;;;0.80;;
10281;SDS011;5186;59.472;18.048;2022-09-01T03:14:07;1.40;;;0.70;;
10281;SDS011;5186;59.472;18.048;2022-09-01T03:16:33;1.03;;;0.80;;
10281;SDS011;5186;59.472;18.048;2022-09-01T03:19:00;1.30;;;0.70;;
10281;SDS011;5186;59.472;18.048;2022-09-01T03:21:27;2.20;;;0.77;;
10281;SDS011;5186;59.472;18.048;2022-09-01T03:23:53;0.63;;;0.60;;
10281;SDS011;5186;59.472;18.048;2022-09-01T03:26:19;1.40;;;0.80;;
10281;SDS011;5186;59.472;18.048;2022-09-01T03:28:46;0.53;;;0.53;;
10281;SDS011;5186;59.472;18.048;2022-09-01T03:31:14;1.27;;;0.70;;
10281;SDS011;5186;59.472;18.048;2022-09-01T03:33:40;0.80;;;0.80;;
10281;SDS011;5186;59.472;18.048;2022-09-01T03:36:06;0.83;;;0.70;;
10281;SDS011;5186;59.472;18.048;2022-09-01T03:38:32;1.60;;;0.80;;
10281;SDS011;5186;59.472;18.048;2022-09-01T03:41:00;1.00;;;0.70;;
10281;SDS011;5186;59.472;18.048;2022-09-01T03:43:29;2.30;;;0.70;;
10281;SDS011;5186;59.472;18.048;2022-09-01T03:45:56;1.60;;;0.63;;
10281;SDS011;5186;59.472;18.048;2022-09-01T03:48:24;0.80;;;0.80;;
10281;SDS011;5186;59.472;18.048;2022-09-01T03:50:53;1.10;;;0.80;;
10281;SDS011;5186;59.472;18.048;2022-09-01T03:53:20;2.10;;;0.90;;
10281;SDS011;5186;59.472;18.048;2022-09-01T03:55:47;1.10;;;0.67;;
10281;SDS011;5186;59.472;18.048;2022-09-01T03:58:15;0.93;;;0.70;;
10281;SDS011;5186;59.472;18.048;2022-09-01T04:00:49;4.53;;;0.90;;
10281;SDS011;5186;59.472;18.048;2022-09-01T04:03:19;1.53;;;0.60;;
10281;SDS011;5186;59.472;18.048;2022-09-01T04:05:47;1.90;;;0.80;;
10281;SDS011;5186;59.472;18.048;2022-09-01T04:08:15;0.80;;;0.67;;
10281;SDS011;5186;59.472;18.048;2022-09-01T04:10:42;2.37;;;0.70;;
10281;SDS011;5186;59.472;18.048;2022-09-01T04:13:24;1.57;;;0.70;;
10281;SDS011;5186;59.472;18.048;2022-09-01T04:15:56;1.70;;;0.80;;
10281;SDS011;5186;59.472;18.048;2022-09-01T04:18:22;1.53;;;1.00;;
10281;SDS011;5186;59.472;18.048;2022-09-01T04:20:49;1.00;;;0.70;;
10281;SDS011;5186;59.472;18.048;2022-09-01T04:23:30;0.90;;;0.57;;
10281;SDS011;5186;59.472;18.048;2022-09-01T04:25:59;2.30;;;0.60;;
10281;SDS011;5186;59.472;18.048;2022-09-01T04:28:34;1.23;;;0.60;;
10281;SDS011;5186;59.472;18.048;2022-09-01T04:31:12;1.70;;;0.70;;
10281;SDS011;5186;59.472;18.048;2022-09-01T04:33:42;0.83;;;0.60;;
10281;SDS011;5186;59.472;18.048;2022-09-01T04:38:44;1.53;;;0.70;;
10281;SDS011;5186;59.472;18.048;2022-09-01T04:41:11;0.60;;;0.60;;
10281;SDS011;5186;59.472;18.048;2022-09-01T04:43:42;1.43;;;0.93;;
10281;SDS011;5186;59.472;18.048;2022-09-01T04:46:11;0.90;;;0.70;;
10281;SDS011;5186;59.472;18.048;2022-09-01T04:48:38;1.27;;;0.63;;
10281;SDS011;5186;59.472;18.048;2022-09-01T04:51:06;0.83;;;0.67;;
10281;SDS011;5186;59.472;18.048;2022-09-01T04:53:34;1.80;;;0.80;;
10281;SDS011;5186;59.472;18.048;2022-09-01T04:56:06;1.13;;;0.70;;
10281;SDS011;5186;59.472;18.048;2022-09-01T04:58:33;1.00;;;0.70;;
10281;SDS011;5186;59.472;18.048;2022-09-01T05:01:01;0.67;;;0.63;;
10281;SDS011;5186;59.472;18.048;2022-09-01T05:03:31;1.20;;;0.83;;
10281;SDS011;5186;59.472;18.048;2022-09-01T05:05:57;0.77;;;0.77;;
10281;SDS011;5186;59.472;18.048;2022-09-01T05:08:27;1.40;;;0.90;;
10281;SDS011;5186;59.472;18.048;2022-09-01T05:10:53;1.10;;;0.70;;
10281;SDS011;5186;59.472;18.048;2022-09-01T05:13:20;0.60;;;0.60;;
10281;SDS011;5186;59.472;18.048;2022-09-01T05:15:47;1.50;;;0.57;;
10281;SDS011;5186;59.472;18.048;2022-09-01T05:18:25;2.10;;;0.90;;
10281;SDS011;5186;59.472;18.048;2022-09-01T05:20:52;1.07;;;0.70;;
10281;SDS011;5186;59.472;18.048;2022-09-01T05:23:19;0.67;;;0.63;;
10281;SDS011;5186;59.472;18.048;2022-09-01T05:25:47;0.77;;;0.60;;
10281;SDS011;5186;59.472;18.048;2022-09-01T05:28:15;0.77;;;0.70;;
10281;SDS011;5186;59.472;18.048;2022-09-01T05:30:43;1.57;;;0.70;;
10281;SDS011;5186;59.472;18.048;2022-09-01T05:33:11;1.00;;;0.87;;
10281;SDS011;5186;59.472;18.048;2022-09-01T05:35:40;1.43;;;0.80;;
10281;SDS011;5186;59.472;18.048;2022-09-01T05:38:09;2.37;;;0.80;;
10281;SDS011;5186;59.472;18.048;2022-09-01T05:40:40;1.50;;;0.70;;
10281;SDS011;5186;59.472;18.048;2022-09-01T05:43:08;0.83;;;0.60;;
10281;SDS011;5186;59.472;18.048;2022-09-01T05:45:36;1.73;;;0.70;;
10281;SDS011;5186;59.472;18.048;2022-09-01T05:48:08;0.70;;;0.60;;
10281;SDS011;5186;59.472;18.048;2022-09-01T05:50:41;1.00;;;0.60;;
10281;SDS011;5186;59.472;18.048;2022-09-01T05:53:11;1.07;;;0.60;;
10281;SDS011;5186;59.472;18.048;2022-09-01T05:55:43;0.93;;;0.57;;
10281;SDS011;5186;59.472;18.048;2022-09-01T05:58:11;0.50;;;0.50;;
10281;SDS011;5186;59.472;18.048;2022-09-01T06:00:39;0.60;;;0.60;;
10281;SDS011;5186;59.472;18.048;2022-09-01T06:03:06;0.60;;;0.60;;
10281;SDS011;5186;59.472;18.048;2022-09-01T06:05:33;0.80;;;0.60;;
10281;SDS011;5186;59.472;18.048;2022-09-01T06:08:04;0.80;;;0.53;;
10281;SDS011;5186;59.472;18.048;2022-09-01T06:10:32;0.73;;;0.60;;
10281;SDS011;5186;59.472;18.048;2022-09-01T06:13:01;0.70;;;0.70;;
10281;SDS011;5186;59.472;18.048;2022-09-01T06:15:30;3.33;;;0.80;;
10281;SDS011;5186;59.472;18.048;2022-09-01T06:17:56;0.73;;;0.50;;
10281;SDS011;5186;59.472;18.048;2022-09-01T06:20:22;1.50;;;0.70;;
10281;SDS011;5186;59.472;18.048;2022-09-01T06:22:49;1.40;;;0.63;;
10281;SDS011;5186;59.472;18.048;2022-09-01T06:25:17;0.50;;;0.50;;
10281;SDS011;5186;59.472;18.048;2022-09-01T06:27:44;3.50;;;0.90;;
10281;SDS011;5186;59.472;18.048;2022-09-01T06:30:12;0.83;;;0.60;;
10281;SDS011;5186;59.472;18.048;2022-09-01T06:32:42;0.50;;;0.50;;
10281;SDS011;5186;59.472;18.048;2022-09-01T06:35:10;1.93;;;0.60;;
10281;SDS011;5186;59.472;18.048;2022-09-01T06:37:37;2.30;;;1.00;;
10281;SDS011;5186;59.472;18.048;2022-09-01T06:40:04;1.30;;;0.43;;
10281;SDS011;5186;59.472;18.048;2022-09-01T06:42:30;2.23;;;0.50;;
10281;SDS011;5186;59.472;18.048;2022-09-01T06:44:59;1.60;;;0.63;;
10281;SDS011;5186;59.472;18.048;2022-09-01T06:47:25;0.80;;;0.60;;
10281;SDS011;5186;59.472;18.048;2022-09-01T06:49:52;0.90;;;0.60;;
10281;SDS011;5186;59.472;18.048;2022-09-01T06:52:22;0.73;;;0.63;;
10281;SDS011;5186;59.472;18.048;2022-09-01T06:54:49;0.47;;;0.47;;
10281;SDS011;5186;59.472;18.048;2022-09-01T06:57:17;0.83;;;0.70;;
10281;SDS011;5186;59.472;18.048;2022-09-01T06:59:43;1.37;;;0.70;;
10281;SDS011;5186;59.472;18.048;2022-09-01T07:02:09;0.53;;;0.53;;
10281;SDS011;5186;59.472;18.048;2022-09-01T07:04:40;0.90;;;0.70;;
10281;SDS011;5186;59.472;18.048;2022-09-01T07:07:10;1.63;;;0.90;;
10281;SDS011;5186;59.472;18.048;2022-09-01T07:09:37;1.30;;;0.70;;
10281;SDS011;5186;59.472;18.048;2022-09-01T07:12:04;1.53;;;0.77;;
10281;SDS011;5186;59.472;18.048;2022-09-01T07:14:30;3.17;;;0.80;;
10281;SDS011;5186;59.472;18.048;2022-09-01T07:16:56;0.60;;;0.60;;
10281;SDS011;5186;59.472;18.048;2022-09-01T07:19:22;1.23;;;0.63;;
10281;SDS011;5186;59.472;18.048;2022-09-01T07:21:50;1.87;;;0.40;;
10281;SDS011;5186;59.472;18.048;2022-09-01T07:24:16;1.73;;;0.50;;
10281;SDS011;5186;59.472;18.048;2022-09-01T07:26:44;1.33;;;0.40;;
10281;SDS011;5186;59.472;18.048;2022-09-01T07:29:14;0.77;;;0.50;;
10281;SDS011;5186;59.472;18.048;2022-09-01T07:31:41;2.00;;;0.70;;
10281;SDS011;5186;59.472;18.048;2022-09-01T07:34:08;0.93;;;0.50;;
10281;SDS011;5186;59.472;18.048;2022-09-01T07:36:37;1.20;;;0.50;;
10281;SDS011;5186;59.472;18.048;2022-09-01T07:39:04;0.40;;;0.40;;
10281;SDS011;5186;59.472;18.048;2022-09-01T07:41:30;0.30;;;0.30;;
10281;SDS011;5186;59.472;18.048;2022-09-01T07:43:59;0.20;;;0.20;;
10281;SDS011;5186;59.472;18.048;2022-09-01T07:46:27;1.13;;;0.60;;
10281;SDS011;5186;59.472;18.048;2022-09-01T07:48:56;0.47;;;0.40;;
10281;SDS011;5186;59.472;18.048;2022-09-01T07:51:23;1.07;;;0.40;;
10281;SDS011;5186;59.472;18.048;2022-09-01T07:53:50;0.73;;;0.40;;
10281;SDS011;5186;59.472;18.048;2022-09-01T07:56:17;0.47;;;0.47;;
10281;SDS011;5186;59.472;18.048;2022-09-01T07:58:45;1.50;;;0.30;;
10281;SDS011;5186;59.472;18.048;2022-09-01T08:01:22;0.67;;;0.30;;
10281;SDS011;5186;59.472;18.048;2022-09-01T08:03:54;0.67;;;0.40;;
10281;SDS011;5186;59.472;18.048;2022-09-01T08:06:22;0.97;;;0.37;;
10281;SDS011;5186;59.472;18.048;2022-09-01T08:08:50;1.70;;;0.50;;
10281;SDS011;5186;59.472;18.048;2022-09-01T08:11:18;1.43;;;0.40;;
10281;SDS011;5186;59.472;18.048;2022-09-01T08:13:49;0.40;;;0.40;;
10281;SDS011;5186;59.472;18.048;2022-09-01T08:16:16;0.53;;;0.37;;
10281;SDS011;5186;59.472;18.048;2022-09-01T08:18:42;1.23;;;0.53;;
10281;SDS011;5186;59.472;18.048;2022-09-01T08:21:10;1.33;;;0.50;;
10281;SDS011;5186;59.472;18.048;2022-09-01T08:23:37;1.07;;;0.40;;
10281;SDS011;5186;59.472;18.048;2022-09-01T08:26:07;0.60;;;0.50;;
10281;SDS011;5186;59.472;18.048;2022-09-01T08:28:34;1.13;;;0.50;;
10281;SDS011;5186;59.472;18.048;2022-09-01T08:31:04;0.50;;;0.40;;
10281;SDS011;5186;59.472;18.048;2022-09-01T08:33:34;0.40;;;0.40;;
10281;SDS011;5186;59.472;18.048;2022-09-01T08:36:00;1.07;;;0.53;;
10281;SDS011;5186;59.472;18.048;2022-09-01T08:38:26;0.40;;;0.37;;
10281;SDS011;5186;59.472;18.048;2022-09-01T08:40:53;0.37;;;0.37;;
10281;SDS011;5186;59.472;18.048;2022-09-01T08:45:56;1.30;;;0.47;;
10281;SDS011;5186;59.472;18.048;2022-09-01T08:51:11;1.97;;;0.30;;
10281;SDS011;5186;59.472;18.048;2022-09-01T08:56:51;0.30;;;0.30;;
10281;SDS011;5186;59.472;18.048;2022-09-01T08:59:21;1.60;;;0.50;;
10281;SDS011;5186;59.472;18.048;2022-09-01T09:01:56;0.40;;;0.33;;
10281;SDS011;5186;59.472;18.048;2022-09-01T09:04:42;0.50;;;0.40;;
10281;SDS011;5186;59.472;18.048;2022-09-01T09:21:32;0.60;;;0.37;;
10281;SDS011;5186;59.472;18.048;2022-09-01T09:26:51;0.30;;;0.30;;
10281;SDS011;5186;59.472;18.048;2022-09-01T09:29:19;0.23;;;0.23;;
10281;SDS011;5186;59.472;18.048;2022-09-01T09:31:46;0.63;;;0.30;;
10281;SDS011;5186;59.472;18.048;2022-09-01T09:36:47;1.03;;;0.30;;
10281;SDS011;5186;59.472;18.048;2022-09-01T09:39:15;1.53;;;0.40;;
10281;SDS011;5186;59.472;18.048;2022-09-01T09:41:42;0.40;;;0.30;;
10281;SDS011;5186;59.472;18.048;2022-09-01T09:44:26;1.00;;;0.40;;
10281;SDS011;5186;59.472;18.048;2022-09-01T09:46:55;1.33;;;0.30;;
10281;SDS011;5186;59.472;18.048;2022-09-01T09:49:28;0.20;;;0.20;;
10281;SDS011;5186;59.472;18.048;2022-09-01T09:54:35;2.40;;;0.50;;
10281;SDS011;5186;59.472;18.048;2022-09-01T10:02:26;0.50;;;0.50;;
10281;SDS011;5186;59.472;18.048;2022-09-01T10:08:06;3.20;;;0.60;;
10281;SDS011;5186;59.472;18.048;2022-09-01T10:10:39;1.03;;;0.30;;
10281;SDS011;5186;59.472;18.048;2022-09-01T10:13:08;0.37;;;0.30;;
10281;SDS011;5186;59.472;18.048;2022-09-01T10:15:40;0.77;;;0.33;;
10281;SDS011;5186;59.472;18.048;2022-09-01T10:18:14;1.57;;;0.40;;
10281;SDS011;5186;59.472;18.048;2022-09-01T10:20:48;1.03;;;0.40;;
10281;SDS011;5186;59.472;18.048;2022-09-01T10:23:23;0.57;;;0.30;;
10281;SDS011;5186;59.472;18.048;2022-09-01T10:25:51;1.57;;;0.50;;
10281;SDS011;5186;59.472;18.048;2022-09-01T10:28:24;0.33;;;0.30;;
10281;SDS011;5186;59.472;18.048;2022-09-01T10:30:55;1.33;;;0.30;;
10281;SDS011;5186;59.472;18.048;2022-09-01T10:33:22;0.63;;;0.27;;
10281;SDS011;5186;59.472;18.048;2022-09-01T10:35:50;0.40;;;0.10;;
10281;SDS011;5186;59.472;18.048;2022-09-01T10:38:20;0.17;;;0.17;;
10281;SDS011;5186;59.472;18.048;2022-09-01T10:40:50;1.30;;;0.37;;
10281;SDS011;5186;59.472;18.048;2022-09-01T10:45:57;0.87;;;0.70;;
10281;SDS011;5186;59.472;18.048;2022-09-01T10:50:57;0.47;;;0.20;;
10281;SDS011;5186;59.472;18.048;2022-09-01T10:56:07;1.17;;;0.20;;
10281;SDS011;5186;59.472;18.048;2022-09-01T11:01:40;0.20;;;0.20;;
10281;SDS011;5186;59.472;18.048;2022-09-01T11:04:04;0.27;;;0.20;;
10281;SDS011;5186;59.472;18.048;2022-09-01T11:06:52;1.37;;;0.10;;
10281;SDS011;5186;59.472;18.048;2022-09-01T11:14:47;0.43;;;0.10;;
10281;SDS011;5186;59.472;18.048;2022-09-01T11:22:44;0.57;;;0.20;;
10281;SDS011;5186;59.472;18.048;2022-09-01T11:25:42;0.07;;;0.07;;
10281;SDS011;5186;59.472;18.048;2022-09-01T11:28:09;0.10;;;0.10;;
10281;SDS011;5186;59.472;18.048;2022-09-01T11:31:09;0.10;;;0.10;;
10281;SDS011;5186;59.472;18.048;2022-09-01T11:33:55;0.10;;;0.10;;
10281;SDS011;5186;59.472;18.048;2022-09-01T11:36:32;0.10;;;0.10;;
10281;SDS011;5186;59.472;18.048;2022-09-01T11:47:00;0.00;;;0.00;;
10281;SDS011;5186;59.472;18.048;2022-09-01T11:49:32;0.00;;;0.00;;
10281;SDS011;5186;59.472;18.048;2022-09-01T11:52:00;0.10;;;0.00;;
10281;SDS011;5186;59.472;18.048;2022-09-01T11:54:28;0.20;;;0.10;;
10281;SDS011;5186;59.472;18.048;2022-09-01T11:57:15;0.17;;;0.10;;
10281;SDS011;5186;59.472;18.048;2022-09-01T11:59:46;0.50;;;0.07;;
10281;SDS011;5186;59.472;18.048;2022-09-01T12:02:22;0.73;;;0.10;;
10281;SDS011;5186;59.472;18.048;2022-09-01T12:04:57;0.30;;;0.23;;
10281;SDS011;5186;59.472;18.048;2022-09-01T12:07:38;0.30;;;0.10;;
10281;SDS011;5186;59.472;18.048;2022-09-01T12:10:14;0.10;;;0.10;;
10281;SDS011;5186;59.472;18.048;2022-09-01T12:12:43;0.60;;;0.20;;
10281;SDS011;5186;59.472;18.048;2022-09-01T12:15:16;0.57;;;0.10;;
10281;SDS011;5186;59.472;18.048;2022-09-01T12:17:44;0.47;;;0.10;;
10281;SDS011;5186;59.472;18.048;2022-09-01T12:20:27;0.27;;;0.20;;
10281;SDS011;5186;59.472;18.048;2022-09-01T12:22:59;1.50;;;0.20;;
10281;SDS011;5186;59.472;18.048;2022-09-01T12:25:30;0.17;;;0.13;;
10281;SDS011;5186;59.472;18.048;2022-09-01T12:28:03;0.10;;;0.10;;
10281;SDS011;5186;59.472;18.048;2022-09-01T12:30:32;0.23;;;0.20;;
10281;SDS011;5186;59.472;18.048;2022-09-01T12:32:59;1.33;;;0.40;;
10281;SDS011;5186;59.472;18.048;2022-09-01T12:35:31;0.90;;;0.30;;
10281;SDS011;5186;59.472;18.048;2022-09-01T12:40:51;2.63;;;1.10;;
10281;SDS011;5186;59.472;18.048;2022-09-01T12:46:00;0.53;;;0.27;;
10281;SDS011;5186;59.472;18.048;2022-09-01T12:48:32;0.37;;;0.33;;
10281;SDS011;5186;59.472;18.048;2022-09-01T12:51:21;0.67;;;0.10;;
10281;SDS011;5186;59.472;18.048;2022-09-01T12:53:50;0.47;;;0.27;;
10281;SDS011;5186;59.472;18.048;2022-09-01T12:59:04;0.77;;;0.27;;
10281;SDS011;5186;59.472;18.048;2022-09-01T13:01:36;1.10;;;0.30;;
10281;SDS011;5186;59.472;18.048;2022-09-01T13:04:11;1.33;;;0.40;;
10281;SDS011;5186;59.472;18.048;2022-09-01T13:06:39;1.17;;;0.40;;
10281;SDS011;5186;59.472;18.048;2022-09-01T13:09:05;0.73;;;0.30;;
10281;SDS011;5186;59.472;18.048;2022-09-01T13:11:31;1.00;;;0.40;;
10281;SDS011;5186;59.472;18.048;2022-09-01T13:13:57;1.13;;;0.27;;
10281;SDS011;5186;59.472;18.048;2022-09-01T13:16:23;0.77;;;0.23;;
10281;SDS011;5186;59.472;18.048;2022-09-01T13:18:48;0.70;;;0.30;;
10281;SDS011;5186;59.472;18.048;2022-09-01T13:21:14;0.20;;;0.20;;
10281;SDS011;5186;59.472;18.048;2022-09-01T13:23:40;0.80;;;0.20;;
10281;SDS011;5186;59.472;18.048;2022-09-01T13:26:06;1.83;;;1.20;;
10281;SDS011;5186;59.472;18.048;2022-09-01T13:28:31;0.27;;;0.27;;
10281;SDS011;5186;59.472;18.048;2022-09-01T13:30:58;0.50;;;0.50;;
10281;SDS011;5186;59.472;18.048;2022-09-01T13:33:29;0.40;;;0.20;;
10281;SDS011;5186;59.472;18.048;2022-09-01T13:35:55;0.90;;;0.30;;
10281;SDS011;5186;59.472;18.048;2022-09-01T13:38:21;1.47;;;0.30;;
10281;SDS011;5186;59.472;18.048;2022-09-01T13:40:48;0.20;;;0.20;;
10281;SDS011;5186;59.472;18.048;2022-09-01T13:43:16;0.10;;;0.10;;
10281;SDS011;5186;59.472;18.048;2022-09-01T13:45:44;0.23;;;0.20;;
10281;SDS011;5186;59.472;18.048;2022-09-01T13:48:10;0.43;;;0.30;;
10281;SDS011;5186;59.472;18.048;2022-09-01T13:50:36;1.40;;;0.33;;
10281;SDS011;5186;59.472;18.048;2022-09-01T13:53:03;1.80;;;0.40;;
10281;SDS011;5186;59.472;18.048;2022-09-01T13:55:30;1.07;;;0.30;;
10281;SDS011;5186;59.472;18.048;2022-09-01T13:57:58;0.67;;;0.30;;
10281;SDS011;5186;59.472;18.048;2022-09-01T14:00:26;0.80;;;0.40;;
10281;SDS011;5186;59.472;18.048;2022-09-01T14:03:04;0.33;;;0.33;;
10281;SDS011;5186;59.472;18.048;2022-09-01T14:05:32;2.13;;;0.30;;
10281;SDS011;5186;59.472;18.048;2022-09-01T14:08:00;0.83;;;0.40;;
10281;SDS011;5186;59.472;18.048;2022-09-01T14:10:27;0.43;;;0.30;;
10281;SDS011;5186;59.472;18.048;2022-09-01T14:12:55;0.77;;;0.20;;
10281;SDS011;5186;59.472;18.048;2022-09-01T14:15:21;0.37;;;0.20;;
10281;SDS011;5186;59.472;18.048;2022-09-01T14:17:48;0.67;;;0.40;;
10281;SDS011;5186;59.472;18.048;2022-09-01T14:20:18;0.70;;;0.20;;
10281;SDS011;5186;59.472;18.048;2022-09-01T14:22:45;1.80;;;0.30;;
10281;SDS011;5186;59.472;18.048;2022-09-01T14:25:11;0.30;;;0.30;;
10281;SDS011;5186;59.472;18.048;2022-09-01T14:27:38;0.30;;;0.30;;
10281;SDS011;5186;59.472;18.048;2022-09-01T14:30:06;1.50;;;0.27;;
10281;SDS011;5186;59.472;18.048;2022-09-01T14:32:33;0.30;;;0.30;;
10281;SDS011;5186;59.472;18.048;2022-09-01T14:34:59;1.87;;;0.23;;
10281;SDS011;5186;59.472;18.048;2022-09-01T14:37:25;0.20;;;0.20;;
10281;SDS011;5186;59.472;18.048;2022-09-01T14:39:53;0.30;;;0.20;;
10281;SDS011;5186;59.472;18.048;2022-09-01T14:42:20;0.63;;;0.30;;
10281;SDS011;5186;59.472;18.048;2022-09-01T14:44:47;0.60;;;0.27;;
10281;SDS011;5186;59.472;18.048;2022-09-01T14:47:13;0.40;;;0.20;;
10281;SDS011;5186;59.472;18.048;2022-09-01T14:49:41;0.70;;;0.20;;
10281;SDS011;5186;59.472;18.048;2022-09-01T14:52:07;0.83;;;0.20;;
10281;SDS011;5186;59.472;18.048;2022-09-01T14:54:33;0.20;;;0.20;;
10281;SDS011;5186;59.472;18.048;2022-09-01T14:57:00;0.20;;;0.20;;
10281;SDS011;5186;59.472;18.048;2022-09-01T14:59:26;1.30;;;0.20;;
10281;SDS011;5186;59.472;18.048;2022-09-01T15:01:52;0.63;;;0.17;;
10281;SDS011;5186;59.472;18.048;2022-09-01T15:04:18;0.27;;;0.13;;
10281;SDS011;5186;59.472;18.048;2022-09-01T15:06:44;0.30;;;0.30;;
10281;SDS011;5186;59.472;18.048;2022-09-01T15:09:09;0.20;;;0.20;;
10281;SDS011;5186;59.472;18.048;2022-09-01T15:11:35;0.20;;;0.20;;
10281;SDS011;5186;59.472;18.048;2022-09-01T15:14:01;0.30;;;0.30;;
10281;SDS011;5186;59.472;18.048;2022-09-01T15:16:27;0.20;;;0.20;;
10281;SDS011;5186;59.472;18.048;2022-09-01T15:18:53;0.53;;;0.33;;
10281;SDS011;5186;59.472;18.048;2022-09-01T15:21:29;0.20;;;0.20;;
10281;SDS011;5186;59.472;18.048;2022-09-01T15:23:57;0.30;;;0.20;;
10281;SDS011;5186;59.472;18.048;2022-09-01T15:26:24;0.43;;;0.30;;
10281;SDS011;5186;59.472;18.048;2022-09-01T15:28:50;0.63;;;0.20;;
10281;SDS011;5186;59.472;18.048;2022-09-01T15:31:16;0.17;;;0.17;;
10281;SDS011;5186;59.472;18.048;2022-09-01T15:33:43;0.30;;;0.27;;
10281;SDS011;5186;59.472;18.048;2022-09-01T15:36:13;0.83;;;0.40;;
10281;SDS011;5186;59.472;18.048;2022-09-01T15:38:40;0.40;;;0.20;;
10281;SDS011;5186;59.472;18.048;2022-09-01T15:41:06;1.90;;;0.33;;
10281;SDS011;5186;59.472;18.048;2022-09-01T15:43:32;0.97;;;0.30;;
10281;SDS011;5186;59.472;18.048;2022-09-01T15:45:58;0.87;;;0.30;;
10281;SDS011;5186;59.472;18.048;2022-09-01T15:48:26;1.87;;;0.20;;
10281;SDS011;5186;59.472;18.048;2022-09-01T15:50:53;0.77;;;0.23;;
10281;SDS011;5186;59.472;18.048;2022-09-01T15:53:43;0.30;;;0.27;;
10281;SDS011;5186;59.472;18.048;2022-09-01T15:56:09;0.57;;;0.30;;
10281;SDS011;5186;59.472;18.048;2022-09-01T15:58:35;0.93;;;0.20;;
10281;SDS011;5186;59.472;18.048;2022-09-01T16:01:00;0.70;;;0.27;;
10281;SDS011;5186;59.472;18.048;2022-09-01T16:03:26;0.83;;;0.30;;
10281;SDS011;5186;59.472;18.048;2022-09-01T16:05:53;0.80;;;0.40;;
10281;SDS011;5186;59.472;18.048;2022-09-01T16:08:19;0.30;;;0.30;;
10281;SDS011;5186;59.472;18.048;2022-09-01T16:10:45;0.67;;;0.30;;
10281;SDS011;5186;59.472;18.048;2022-09-01T16:13:11;1.13;;;0.33;;
10281;SDS011;5186;59.472;18.048;2022-09-01T16:15:40;0.77;;;0.30;;
10281;SDS011;5186;59.472;18.048;2022-09-01T16:20:53;0.70;;;0.30;;
10281;SDS011;5186;59.472;18.048;2022-09-01T16:23:36;0.20;;;0.20;;